createdAt,value
2019-02-23T00:03:04.826Z,-4.43
2019-02-23T00:07:13.081Z,-4.47
2019-02-23T00:11:20.659Z,-4.45
2019-02-23T00:15:28.379Z,-4.44
2019-02-23T00:19:36.622Z,-4.37
2019-02-23T00:23:44.297Z,-4.38
2019-02-23T00:27:52.160Z,-4.36
2019-02-23T00:32:00.012Z,-4.45
2019-02-23T00:36:07.883Z,-4.36
2019-02-23T00:40:15.634Z,-4.41
2019-02-23T00:44:23.803Z,-4.33
2019-02-23T00:48:31.446Z,-4.30
2019-02-23T00:52:39.301Z,-4.38
2019-02-23T00:56:47.164Z,-4.44
2019-02-23T01:00:54.833Z,-4.38
2019-02-23T01:05:03.413Z,-4.28
2019-02-23T01:09:11.585Z,-4.30
2019-02-23T01:13:19.329Z,-4.31
2019-02-23T01:17:27.561Z,-4.37
2019-02-23T01:21:35.400Z,-4.32
2019-02-23T01:25:43.188Z,-4.42
2019-02-23T01:29:51.303Z,-4.36
2019-02-23T01:34:00.132Z,-4.44
2019-02-23T01:38:08.455Z,-4.55
2019-02-23T01:42:16.301Z,-4.54
2019-02-23T01:46:23.868Z,-4.56
2019-02-23T01:50:32.188Z,-4.64
2019-02-23T01:54:40.304Z,-4.54
2019-02-23T01:58:48.363Z,-4.63
2019-02-23T02:02:56.320Z,-4.46
2019-02-23T02:07:04.746Z,-4.60
2019-02-23T02:11:12.652Z,-4.68
2019-02-23T02:15:20.598Z,-4.66
2019-02-23T02:19:28.358Z,-4.57
2019-02-23T02:23:35.985Z,-4.70
2019-02-23T02:27:44.357Z,-4.78
2019-02-23T02:31:52.214Z,-4.79
2019-02-23T02:35:59.890Z,-4.82
2019-02-23T02:40:08.274Z,-4.83
2019-02-23T02:44:15.973Z,-4.74
2019-02-23T02:48:24.100Z,-4.92
2019-02-23T02:52:32.347Z,-4.95
2019-02-23T02:56:39.900Z,-4.84
2019-02-23T03:00:47.921Z,-4.84
2019-02-23T03:04:56.098Z,-4.92
2019-02-23T03:09:04.208Z,-4.84
2019-02-23T03:13:12.597Z,-4.85
2019-02-23T03:17:20.295Z,-4.84
2019-02-23T03:21:29.026Z,-4.82
2019-02-23T03:25:37.255Z,-4.89
2019-02-23T03:29:45.060Z,-5.05
2019-02-23T03:33:52.554Z,-4.97
2019-02-23T03:38:00.381Z,-5.07
2019-02-23T03:42:08.568Z,-5.02
2019-02-23T03:46:16.189Z,-5.07
2019-02-23T03:50:24.206Z,-5.02
2019-02-23T03:54:32.044Z,-5.06
2019-02-23T03:58:39.838Z,-5.12
2019-02-23T04:02:48.791Z,-5.21
2019-02-23T04:06:56.369Z,-5.24
2019-02-23T04:11:05.526Z,-5.29
2019-02-23T04:15:13.324Z,-5.41
2019-02-23T04:19:20.941Z,-5.34
2019-02-23T04:23:29.656Z,-5.31
2019-02-23T04:27:38.044Z,-5.41
2019-02-23T04:31:46.653Z,-5.51
2019-02-23T04:35:54.616Z,-5.51
2019-02-23T04:40:02.833Z,-5.58
2019-02-23T04:44:10.456Z,-5.61
2019-02-23T04:48:18.273Z,-5.54
2019-02-23T04:52:25.871Z,-5.63
2019-02-23T04:56:35.009Z,-5.62
2019-02-23T05:00:44.990Z,-5.58
2019-02-23T05:04:52.679Z,-5.61
2019-02-23T05:09:00.926Z,-5.69
2019-02-23T05:13:10.457Z,-5.56
2019-02-23T05:17:17.977Z,-5.48
2019-02-23T05:21:26.935Z,-5.58
2019-02-23T05:25:34.889Z,-5.50
2019-02-23T05:29:42.505Z,-5.36
2019-02-23T05:33:50.515Z,-5.47
2019-02-23T05:37:58.326Z,-5.39
2019-02-23T05:42:06.177Z,-5.53
2019-02-23T05:46:14.041Z,-5.47
2019-02-23T05:50:21.572Z,-5.28
2019-02-23T05:54:29.354Z,-5.34
2019-02-23T05:58:37.570Z,-5.39
2019-02-23T06:02:45.403Z,-5.34
2019-02-23T06:06:53.706Z,-5.38
2019-02-23T06:11:02.006Z,-5.26
2019-02-23T06:15:12.227Z,-5.26
2019-02-23T06:19:20.417Z,-5.25
2019-02-23T06:23:28.545Z,-5.15
2019-02-23T06:27:36.134Z,-5.20
2019-02-23T06:31:43.805Z,-5.11
2019-02-23T06:35:52.059Z,-5.06
2019-02-23T06:39:59.973Z,-5.14
2019-02-23T06:44:08.193Z,-5.14
2019-02-23T06:48:19.781Z,-4.88
2019-02-23T06:52:26.399Z,-4.86
2019-02-23T06:56:34.202Z,-4.84
2019-02-23T07:00:41.999Z,-4.84
2019-02-23T07:04:49.820Z,-4.70
2019-02-23T07:08:58.946Z,-4.68
2019-02-23T07:13:07.357Z,-4.62
2019-02-23T07:17:16.013Z,-4.63
2019-02-23T07:21:23.716Z,-4.43
2019-02-23T07:25:33.587Z,-4.51
2019-02-23T07:29:42.095Z,-4.43
2019-02-23T07:33:49.801Z,-4.34
2019-02-23T07:37:57.631Z,-4.16
2019-02-23T07:42:05.908Z,-3.82
2019-02-23T07:46:13.708Z,-3.90
2019-02-23T07:50:21.451Z,-3.93
2019-02-23T07:54:29.275Z,-3.58
2019-02-23T07:58:37.181Z,-3.12
2019-02-23T08:02:45.556Z,-3.18
2019-02-23T08:06:53.482Z,-3.12
2019-02-23T08:11:01.835Z,-3.19
2019-02-23T08:15:10.075Z,-3.18
2019-02-23T08:19:17.806Z,-3.34
2019-02-23T08:23:25.774Z,-2.79
2019-02-23T08:27:34.507Z,-2.79
2019-02-23T08:31:42.926Z,-2.53
2019-02-23T08:35:50.664Z,-2.82
2019-02-23T08:39:58.367Z,-2.70
2019-02-23T08:44:06.506Z,-2.84
2019-02-23T08:48:14.252Z,-2.63
2019-02-23T08:52:22.095Z,-2.80
2019-02-23T08:56:31.016Z,-2.57
2019-02-23T09:00:38.732Z,-2.06
2019-02-23T09:04:46.538Z,-2.09
2019-02-23T09:08:54.286Z,-2.22
2019-02-23T09:13:02.253Z,-2.13
2019-02-23T09:17:10.587Z,-2.11
2019-02-23T09:21:18.202Z,-2.07
2019-02-23T09:25:26.834Z,-1.37
2019-02-23T09:29:35.029Z,-1.63
2019-02-23T09:33:43.047Z,-0.87
2019-02-23T09:37:51.268Z,-1.46
2019-02-23T09:42:07.210Z,-1.38
2019-02-23T09:46:08.846Z,-1.02
2019-02-23T09:50:17.992Z,-1.31
2019-02-23T09:54:25.432Z,-1.21
2019-02-23T09:58:33.985Z,-0.69
2019-02-23T10:02:43.247Z,-0.81
2019-02-23T10:06:51.011Z,0.02
2019-02-23T10:10:58.854Z,-0.17
2019-02-23T10:15:06.921Z,-0.56
2019-02-23T10:19:14.585Z,-0.55
2019-02-23T10:23:22.543Z,-1.08
2019-02-23T10:27:31.159Z,-1.11
2019-02-23T10:31:39.080Z,-1.17
2019-02-23T10:35:47.694Z,-0.60
2019-02-23T10:39:55.401Z,-0.13
2019-02-23T10:44:03.075Z,-0.72
2019-02-23T10:48:11.300Z,0.17
2019-02-23T10:52:19.034Z,0.37
2019-02-23T10:56:26.535Z,-0.15
2019-02-23T11:00:34.335Z,0.18
2019-02-23T11:04:41.954Z,-0.05
2019-02-23T11:08:50.230Z,-0.37
2019-02-23T11:12:58.498Z,-0.92
2019-02-23T11:17:06.401Z,-0.22
2019-02-23T11:21:15.003Z,0.31
2019-02-23T11:25:22.840Z,-0.02
2019-02-23T11:29:30.637Z,-0.51
2019-02-23T11:33:38.764Z,-0.42
2019-02-23T11:37:46.819Z,-0.66
2019-02-23T11:41:55.409Z,-0.51
2019-02-23T11:46:03.309Z,-1.69
2019-02-23T11:50:11.427Z,-1.68
2019-02-23T11:54:19.453Z,-1.12
2019-02-23T11:58:27.149Z,-0.81
2019-02-23T12:02:35.039Z,-0.92
2019-02-23T12:06:43.023Z,-0.69
2019-02-23T12:10:51.274Z,-1.03
2019-02-23T12:14:59.581Z,-1.46
2019-02-23T12:19:07.341Z,-1.64
2019-02-23T12:23:14.876Z,-2.00
2019-02-23T12:27:22.642Z,-1.32
2019-02-23T12:31:30.757Z,-1.31
2019-02-23T12:35:38.569Z,-1.25
2019-02-23T12:39:46.365Z,-1.35
2019-02-23T12:43:54.697Z,-1.82
2019-02-23T12:48:02.502Z,-1.83
2019-02-23T12:52:10.400Z,-1.99
2019-02-23T12:56:18.542Z,-2.08
2019-02-23T13:00:26.332Z,-1.92
2019-02-23T13:04:34.266Z,-1.62
2019-02-23T13:09:33.868Z,-1.69
2019-02-23T13:14:13.975Z,-1.61
2019-02-23T13:19:30.059Z,-1.94
2019-02-23T13:24:09.795Z,-2.06
2019-02-23T13:28:31.540Z,-1.97
2019-02-23T13:33:41.624Z,-1.80
2019-02-23T13:38:06.050Z,-1.58
2019-02-23T13:42:45.482Z,-1.88
2019-02-23T13:47:20.012Z,-1.98
2019-02-23T13:51:50.556Z,-2.12
2019-02-23T13:56:38.713Z,-2.23
2019-02-23T14:01:33.730Z,-1.75
2019-02-23T14:06:26.059Z,-2.14
2019-02-23T14:11:01.841Z,-2.27
2019-02-23T14:15:52.664Z,-2.10
2019-02-23T14:20:48.903Z,-2.13
2019-02-23T14:25:44.264Z,-2.21
2019-02-23T14:30:21.316Z,-2.38
2019-02-23T14:35:12.353Z,-2.22
2019-02-23T14:40:05.821Z,-2.44
2019-02-23T14:44:42.136Z,-2.13
2019-02-23T14:49:34.458Z,-2.24
2019-02-23T14:54:41.369Z,-2.64
2019-02-23T14:59:30.084Z,-2.70
2019-02-23T15:04:33.535Z,-2.47
2019-02-23T15:09:09.912Z,-2.80
2019-02-23T15:13:48.146Z,-2.86
2019-02-23T15:18:48.486Z,-2.77
2019-02-23T15:23:47.089Z,-2.43
2019-02-23T15:28:50.700Z,-2.62
2019-02-23T15:33:20.628Z,-2.63
2019-02-23T15:37:37.724Z,-2.65
2019-02-23T15:42:38.262Z,-2.64
2019-02-23T15:47:08.964Z,-3.03
2019-02-23T15:51:17.086Z,-2.96
2019-02-23T15:55:28.816Z,-3.02
2019-02-23T15:59:34.467Z,-2.97
2019-02-23T16:03:42.224Z,-2.98
2019-02-23T16:07:50.338Z,-2.98
2019-02-23T16:11:58.331Z,-3.08
2019-02-23T16:16:06.058Z,-3.02
2019-02-23T16:20:13.879Z,-2.97
2019-02-23T16:24:21.995Z,-2.88
2019-02-23T16:28:29.778Z,-2.72
2019-02-23T16:32:37.786Z,-2.96
2019-02-23T16:36:55.839Z,-2.79
2019-02-23T16:41:03.675Z,-3.23
2019-02-23T16:45:11.718Z,-2.98
2019-02-23T16:49:19.571Z,-2.98
2019-02-23T16:53:27.370Z,-3.02
2019-02-23T16:57:36.317Z,-3.08
2019-02-23T17:01:44.195Z,-3.00
2019-02-23T17:05:52.117Z,-2.91
2019-02-23T17:09:59.726Z,-3.06
2019-02-23T17:14:08.457Z,-2.90
2019-02-23T17:18:16.460Z,-3.08
2019-02-23T17:22:24.564Z,-2.86
2019-02-23T17:26:32.372Z,-3.01
2019-02-23T17:30:40.674Z,-3.04
2019-02-23T17:34:48.707Z,-3.15
2019-02-23T17:38:56.828Z,-3.07
2019-02-23T17:43:05.175Z,-3.04
2019-02-23T17:47:12.867Z,-2.98
2019-02-23T17:51:21.695Z,-3.07
2019-02-23T17:55:29.405Z,-3.02
2019-02-23T17:59:37.113Z,-2.87
2019-02-23T18:03:45.328Z,-2.99
2019-02-23T18:07:53.061Z,-3.11
2019-02-23T18:12:01.067Z,-3.06
2019-02-23T18:16:09.271Z,-2.90
2019-02-23T18:20:17.155Z,-3.20
2019-02-23T18:24:25.076Z,-3.31
2019-02-23T18:28:32.917Z,-3.21
2019-02-23T18:32:40.699Z,-3.00
2019-02-23T18:36:49.047Z,-3.07
2019-02-23T18:40:57.246Z,-3.27
2019-02-23T18:45:04.958Z,-3.41
2019-02-23T18:49:13.817Z,-3.33
2019-02-23T18:53:24.985Z,-3.20
2019-02-23T18:57:32.794Z,-3.02
2019-02-23T19:01:40.800Z,-3.45
2019-02-23T19:05:50.057Z,-3.31
2019-02-23T19:09:58.882Z,-3.28
2019-02-23T19:14:06.689Z,-3.16
2019-02-23T19:18:14.452Z,-3.25
2019-02-23T19:22:22.511Z,-3.32
2019-02-23T19:26:37.966Z,-3.47
2019-02-23T19:30:40.185Z,-3.65
2019-02-23T19:34:48.120Z,-3.48
2019-02-23T19:38:56.428Z,-3.71
2019-02-23T19:43:04.352Z,-3.81
2019-02-23T19:47:20.311Z,-3.67
2019-02-23T19:51:28.227Z,-3.63
2019-02-23T19:55:36.035Z,-3.60
2019-02-23T19:59:44.256Z,-3.60
2019-02-23T20:03:52.351Z,-3.66
2019-02-23T20:08:00.194Z,-3.81
2019-02-23T20:12:08.308Z,-3.76
2019-02-23T20:16:16.109Z,-3.81
2019-02-23T20:20:23.870Z,-3.82
2019-02-23T20:24:32.458Z,-3.90
2019-02-23T20:28:40.464Z,-3.90
2019-02-23T20:32:48.173Z,-3.77
2019-02-23T20:36:56.219Z,-4.12
2019-02-23T20:41:04.402Z,-3.84
2019-02-23T20:45:12.528Z,-3.86
2019-02-23T20:49:20.838Z,-3.95
2019-02-23T20:53:28.973Z,-3.98
2019-02-23T20:57:37.150Z,-4.09
2019-02-23T21:01:45.406Z,-4.03
2019-02-23T21:05:53.120Z,-4.01
2019-02-23T21:10:01.322Z,-4.10
2019-02-23T21:14:09.526Z,-4.18
2019-02-23T21:18:17.350Z,-4.23
2019-02-23T21:22:25.055Z,-4.20
2019-02-23T21:26:33.190Z,-4.14
2019-02-23T21:30:42.804Z,-4.20
2019-02-23T21:34:51.683Z,-4.20
2019-02-23T21:38:59.493Z,-4.26
2019-02-23T21:43:07.414Z,-4.28
2019-02-23T21:47:17.156Z,-4.26
2019-02-23T21:51:24.839Z,-4.31
2019-02-23T21:55:32.462Z,-4.35
2019-02-23T21:59:40.889Z,-4.31
2019-02-23T22:03:48.585Z,-4.30
2019-02-23T22:07:56.304Z,-4.37
2019-02-23T22:12:04.406Z,-4.27
2019-02-23T22:16:12.353Z,-4.36
2019-02-23T22:20:20.527Z,-4.38
2019-02-23T22:24:28.662Z,-4.41
2019-02-23T22:28:37.325Z,-4.48
2019-02-23T22:32:45.608Z,-4.52
2019-02-23T22:36:54.325Z,-4.55
2019-02-23T22:41:01.957Z,-4.58
2019-02-23T22:45:10.172Z,-4.68
2019-02-23T22:49:17.986Z,-4.79
2019-02-23T22:53:25.993Z,-4.86
2019-02-23T22:57:40.240Z,-4.93
2019-02-23T23:01:44.239Z,-4.94
2019-02-23T23:05:53.631Z,-4.88
2019-02-23T23:10:01.541Z,-4.94
2019-02-23T23:14:10.780Z,-4.92
2019-02-23T23:18:18.975Z,-4.88
2019-02-23T23:22:27.198Z,-4.91
2019-02-23T23:26:34.737Z,-4.98
2019-02-23T23:30:42.820Z,-4.95
2019-02-23T23:34:50.757Z,-4.97
2019-02-23T23:38:58.944Z,-4.97
2019-02-23T23:43:07.884Z,-5.00
2019-02-23T23:47:16.011Z,-5.19
2019-02-23T23:51:23.807Z,-5.12
2019-02-23T23:55:32.145Z,-5.15
2019-02-23T23:59:40.159Z,-4.92
